METAR Data
IDs: Format: Raw Decoded Include TAF

Data at: 0515 UTC 24 Sep 2018

KPNS 240503Z 10011KT 9SM -RA SCT020 BKN025 26/23 A2999 RMK AO2 RAB02 P0000 T02610228 $
KPNS 240453Z VRB03KT 10SM FEW018 SCT025 27/24 A2998 RMK AO2 SLP154 T02670239 $
KPNS 240353Z 09005KT 10SM CLR 26/23 A2998 RMK AO2 SLP153 T02610233 $
KPNS 240310Z 08006KT 10SM FEW019 FEW025 SCT031 27/23 A2998 RMK AO2 T02670233 $
KPNS 240253Z 10SM BKN022 BKN030 27/23 A2998 RMK AO2 SLP154 T02670233 51009 $
KPNS 240218Z 08007KT 10SM BKN025 BKN033 27/23 A2998 RMK AO2 T02720233 $
KPNS 240211Z 09004KT 10SM SCT025 BKN033 27/23 A2998 RMK AO2 T02720233 $
KPNS 240202Z 08005KT 10SM BKN025 BKN035 27/23 A2998 RMK AO2 T02720233 $
KPNS 240153Z 08005KT 10SM SCT025 28/22 A2998 RMK AO2 SLP153 T02780222 $
KPNS 240150Z 12006KT 10SM FEW023 SCT029 28/23 A2998 RMK AO2 $
KPNS 240132Z 12007KT 10SM VCTS FEW024 28/22 A2997 RMK AO2 T02780222 $
KPNS 240053Z 16008KT 10SM FEW039 FEW055 BKN110 28/23 A2996 RMK AO2 SLP145 T02780228 $
KPNS 232353Z 14010KT 10SM CLR 28/22 A2995 RMK AO2 SLP141 T02830222 10311 20283 53004 $
KPNS 232253Z 15009KT 10SM FEW026 29/22 A2993 RMK AO2 SLP136 T02890222 $
KPNS 232153Z 16010KT 10SM FEW023 SCT120 29/23 A2993 RMK AO2 SLP137 T02940233 $
KPNS 232053Z 15010KT 10SM CLR 31/23 A2993 RMK AO2 SLP137 T03060228 56020 $
KPNS 231953Z 15009KT 10SM CLR 31/23 A2994 RMK AO2 SLP139 T03060228 $
KPNS 231853Z 13008KT 10SM CLR 31/21 A2997 RMK AO2 SLP148 T03110211 $
KPNS 231753Z 15009KT 10SM SCT023 SCT044 BKN050 29/23 A2999 RMK AO2 RAB05E20 SLP156 P0000 60000 T02890233 10306 20250 58011 $
KPNS 231653Z 16009G18KT 10SM FEW032 SCT045 BKN080 29/22 A3001 RMK AO2 SLP164 T02890222 $
KPNS 231553Z 08004KT 10SM FEW060 BKN110 28/22 A3002 RMK AO2 LTG DSNT SE AND SW SLP166 T02830222 $
KPNS 231453Z VRB05KT 10SM SCT100 28/22 A3002 RMK AO2 RAE1355 SLP168 P0000 60000 T02830222 53015 $
KPNS 231353Z VRB03KT 10SM -RA FEW042 SCT095 28/23 A3000 RMK AO2 RAB09 SLP161 P0000 T02780228 $
KPNS 231253Z AUTO 11007KT 10SM FEW100 26/22 A3000 RMK AO2 SLP159 T02610222 $
KPNS 231153Z AUTO 06005KT 10SM FEW043 25/22 A2998 RMK AO2 SLP153 T02500222 10261 20244 53009 $
KPNS 231053Z AUTO 05004KT 10SM BKN047 24/23 A2996 RMK AO2 SLP147 T02440228 $
KPNS 230953Z AUTO 05003KT 10SM CLR 25/23 A2995 RMK AO2 SLP142 T02500228 $
KPNS 230853Z AUTO 05004KT 10SM CLR 25/23 A2995 RMK AO2 SLP144 T02500233 56009 $
KPNS 230753Z AUTO 04005KT 10SM CLR 26/23 A2996 RMK AO2 SLP144 T02560233 $
KPNS 230653Z AUTO 07004KT 10SM CLR 26/23 A2996 RMK AO2 SLP146 T02560233 $
KPNS 230553Z AUTO 05003KT 10SM CLR 26/24 A2998 RMK AO2 SLP153 T02610239 10278 20261 403170244 57014 $
KPNS 230453Z AUTO 00000KT 10SM FEW027 27/22 A2999 RMK AO2 SLP157 T02670222 $
KPNS 230353Z 14003KT 10SM FEW027 27/22 A3001 RMK AO2 SLP162 T02720222 $
KPNS 230253Z 12003KT 10SM CLR 27/22 A3002 RMK AO2 SLP167 T02720222 51014 $
KPNS 230153Z 15004KT 10SM CLR 27/22 A3002 RMK AO2 SLP165 T02670222 $
KPNS 230053Z 18004KT 10SM CLR 27/22 A2999 RMK AO2 SLP156 T02720222 $
KPNS 222353Z 17005KT 10SM CLR 28/22 A2998 RMK AO2 SLP152 T02780222 10317 20278 53005 $
KPNS 222253Z 17007KT 10SM CLR 29/22 A2997 RMK AO2 SLP151 T02940217 $
KPNS 222153Z 15008KT 10SM CLR 30/22 A2996 RMK AO2 LTG DSNT NE SLP147 T03000217 $
KPNS 222053Z 15010KT 10SM CLR 31/22 A2996 RMK AO2 SLP147 T03060222 56021 $
KPNS 221953Z 14011KT 10SM CLR 31/23 A2997 RMK AO2 LTG DSNT NE SLP151 T03110233 $
KPNS 221853Z 15008KT 10SM CLR 31/23 A3000 RMK AO2 SLP160 T03110228 $
KPNS 221753Z 11012KT 10SM BKN031 31/23 A3003 RMK AO2 SLP168 T03110233 10311 20250 58006 $
KPNS 221733Z 12010KT 10SM BKN031 31/24 A3003 RMK AO2 T03060244 $